메인 페이지
METAR-TAF:

METAR-TAF

공항 :

방기 음포코 국제공항

방기, 중앙아프리카공화국

위도: 04-24N, 경도: 018-31E, 고도: 365m

현재 날씨관측

예보는 1 시간 7분 전, 15:00시(UTC)에 발표되었습니다.
남남동5kt
온도 33°C
습도 39%
기압 1009 hPa
시정 10km 이상
고도 2600ft 상공 구름 조금

METAR: FEFF 181500Z 16005KT 9999 FEW026 33/17 Q1009 NOSIG

시각: 17:07 (16:07 UTC)

예보

예보는 11 시간 7분 전, 05:00시(UTC)에 발표되었습니다.
예보 대상 시간: 18일 06시부터 19일 12시까지 (UTC)
여러 방향의 바람 2kt
시정: 3000m
고도 400ft 상공 구름 보통
박무
전환 중
18일 07시부터 18일 08시까지 (UTC)
시정 10km 이상
일시적
18일 15시부터 18일 18시까지 (UTC)
시정: 4000m
전환 중
19일 02시부터 19일 04시까지 (UTC)
시정: 2000m
박무

TAF: FEFF 180500Z 1806/1912 VRB02KT 3000 BR SCT004 BECMG 1807/1808 9999 NSW TEMPO 1815/1818 4000 HZFU BECMG 1902/1904 2000 BR

4,000개 이상의 공항 관측 자료 및 예보 (METAR 및 TAF 보고).

지도상에서 검색 가능한 기상관측소가 노란 점과 빨간 점으로 표시되어 있습니다.

기상관측소 명을 보려면 표시 위로 마우스를 이동하세요.

날씨 관측과 예보를 보려면 클릭하세요.

지도 변경 : 확대하려면 엑스 표시가 있는 녹색 버튼, 축소하려면 빼기 표시가 있는 녹색 버튼, 다음 페이지의 지도를 보려면 녹색 화살표를 클릭하세요.


METAR-TAF: